Time;durP1;ratioP1;P1;durP2;ratioP2;P2;SDS_P1;SDS_P2;PMS_P1;PMS_P2;Temp;Humidity;BMP_temperature;BMP_pressure;BME280_temperature;BME280_humidity;BME280_pressure;Samples;Min_cycle;Max_cycle;Signal;HPM_P1;HPM_P2
2022/10/17 07:47:09;;;;;;;16.17;14.10;;;16.10;99.90;;;;;;4986764;28;20047;-95
2022/10/17 07:49:41;;;;;;;15.82;14.07;;;16.20;99.90;;;;;;4983284;28;20038;-94
2022/10/17 07:52:12;;;;;;;16.25;14.27;;;16.20;99.90;;;;;;4982542;28;20042;-96
2022/10/17 07:54:38;;;;;;;18.40;14.35;;;16.40;99.90;;;;;;4966250;28;20039;-96
2022/10/17 07:57:10;;;;;;;18.40;14.23;;;16.20;99.90;;;;;;4983007;28;20110;-96
2022/10/17 07:59:41;;;;;;;15.43;13.15;;;16.40;99.90;;;;;;4970073;28;20043;-94
2022/10/17 08:02:19;;;;;;;15.20;13.00;;;16.40;99.90;;;;;;4983535;28;20122;-95
2022/10/17 08:04:45;;;;;;;17.05;14.23;;;16.50;99.90;;;;;;4978107;28;20054;-94
2022/10/17 08:07:10;;;;;;;16.73;13.05;;;16.50;99.90;;;;;;4967861;28;20043;-95
2022/10/17 08:09:36;;;;;;;15.32;13.27;;;16.60;99.90;;;;;;4988194;28;20070;-94
2022/10/17 08:12:02;;;;;;;14.32;12.73;;;16.70;99.90;;;;;;4978000;28;20110;-96
2022/10/17 08:14:28;;;;;;;16.88;12.50;;;16.70;99.90;;;;;;4985059;28;20053;-94
2022/10/17 08:16:54;;;;;;;15.10;12.60;;;16.70;99.90;;;;;;4996563;28;20052;-94
2022/10/17 08:19:19;;;;;;;14.70;11.68;;;16.80;99.90;;;;;;4977915;28;20038;-94
2022/10/17 08:21:45;;;;;;;14.75;12.07;;;16.90;99.90;;;;;;4998687;28;20070;-93
2022/10/17 08:24:11;;;;;;;13.98;11.63;;;16.90;99.90;;;;;;4986101;28;20176;-94
2022/10/17 08:26:37;;;;;;;13.65;11.27;;;16.90;99.90;;;;;;4980952;28;20157;-94
2022/10/17 08:29:05;;;;;;;15.02;11.13;;;16.90;99.90;;;;;;4988446;28;20042;-94
2022/10/17 08:31:30;;;;;;;14.15;11.07;;;16.90;99.90;;;;;;4980840;28;20097;-95
2022/10/17 08:33:56;;;;;;;14.35;11.55;;;17.00;99.90;;;;;;4982941;28;20047;-94
2022/10/17 08:36:22;;;;;;;14.27;11.07;;;16.90;99.90;;;;;;4989978;28;20056;-93
2022/10/17 08:38:47;;;;;;;16.77;11.13;;;16.90;99.90;;;;;;4981001;28;20133;-94
2022/10/17 08:41:23;;;;;;;14.18;10.88;;;16.90;99.90;;;;;;4970270;28;20102;-93
2022/10/17 08:44:01;;;;;;;16.02;10.57;;;16.90;99.90;;;;;;4977879;28;20058;-95
2022/10/17 08:46:37;;;;;;;14.88;11.50;;;16.90;99.90;;;;;;4987730;28;20066;-95
2022/10/17 08:49:11;;;;;;;13.85;10.45;;;17.00;99.90;;;;;;4981651;28;20338;-95
2022/10/17 08:51:46;;;;;;;15.15;11.15;;;17.00;99.90;;;;;;4960906;28;20123;-96
2022/10/17 08:54:41;;;;;;;14.52;11.18;;;17.00;99.90;;;;;;4960012;28;20043;-95
2022/10/17 08:57:12;;;;;;;13.63;10.63;;;17.00;99.90;;;;;;4962788;28;20050;-93
2022/10/17 08:59:38;;;;;;;13.60;11.18;;;17.10;99.90;;;;;;4979402;28;20043;-94
2022/10/17 09:02:52;;;;;;;12.85;10.48;;;17.00;99.90;;;;;;4979244;28;20503;-96
2022/10/17 09:05:25;;;;;;;14.77;10.60;;;17.10;99.90;;;;;;4944703;28;20073;-96
2022/10/17 09:08:10;;;;;;;13.00;9.95;;;17.10;99.90;;;;;;4962647;28;20038;-94
2022/10/17 09:10:57;;;;;;;15.52;10.90;;;17.10;99.90;;;;;;4971558;28;20085;-93
2022/10/17 09:13:49;;;;;;;13.48;11.02;;;17.10;99.90;;;;;;4976185;28;20391;-94
2022/10/17 09:16:41;;;;;;;14.80;11.25;;;17.20;99.90;;;;;;4973075;28;20061;-94
2022/10/17 09:19:10;;;;;;;13.40;10.77;;;17.10;99.90;;;;;;4990828;28;20069;-93
2022/10/17 09:21:42;;;;;;;16.65;11.32;;;17.20;99.90;;;;;;4967852;28;20142;-93
2022/10/17 09:24:31;;;;;;;13.60;10.43;;;17.20;99.90;;;;;;4981367;28;20484;-94
2022/10/17 09:26:57;;;;;;;13.40;9.90;;;17.20;99.90;;;;;;4960768;28;20050;-93
2022/10/17 09:29:25;;;;;;;13.50;10.15;;;17.30;99.90;;;;;;4989678;28;20031;-96
2022/10/17 09:32:02;;;;;;;13.50;10.18;;;17.30;99.90;;;;;;4990440;28;20148;-96
2022/10/17 09:34:29;;;;;;;15.23;10.32;;;17.40;99.90;;;;;;4986906;28;20050;-95
2022/10/17 09:36:58;;;;;;;14.20;10.40;;;17.40;99.90;;;;;;4973947;28;20647;-94
2022/10/17 09:39:25;;;;;;;12.23;10.38;;;17.40;99.90;;;;;;4968807;28;20043;-94
2022/10/17 09:41:57;;;;;;;13.23;10.45;;;17.40;99.90;;;;;;4971504;28;20174;-90
2022/10/17 09:44:33;;;;;;;13.48;9.73;;;17.40;99.90;;;;;;4966444;28;20508;-90
2022/10/17 09:47:07;;;;;;;13.18;10.75;;;17.40;99.90;;;;;;4965827;28;20054;-93
2022/10/17 09:49:39;;;;;;;14.23;10.63;;;17.40;99.90;;;;;;4976407;28;20054;-93
2022/10/17 09:52:24;;;;;;;13.27;10.60;;;17.40;99.90;;;;;;4977610;28;20074;-88
2022/10/17 09:54:52;;;;;;;16.95;10.85;;;17.40;99.90;;;;;;4968753;28;20046;-93
2022/10/17 09:57:20;;;;;;;12.93;11.13;;;17.40;99.90;;;;;;4960226;28;20046;-92
2022/10/17 09:59:58;;;;;;;15.35;11.82;;;17.30;99.90;;;;;;4983458;28;20156;-92
2022/10/17 10:02:26;;;;;;;15.80;11.80;;;17.30;99.90;;;;;;4977252;28;20051;-91
2022/10/17 10:05:03;;;;;;;16.42;12.57;;;17.30;99.90;;;;;;4979022;28;20047;-93
2022/10/17 10:07:32;;;;;;;15.50;12.82;;;17.20;99.90;;;;;;4964153;28;20058;-96
2022/10/17 10:09:59;;;;;;;16.60;13.68;;;17.20;99.90;;;;;;4964109;28;20066;-95
2022/10/17 10:12:31;;;;;;;18.02;13.27;;;17.10;99.90;;;;;;4973268;28;20034;-92
2022/10/17 10:14:57;;;;;;;17.58;13.30;;;17.10;99.90;;;;;;4966728;28;20177;-92
2022/10/17 10:17:31;;;;;;;16.80;13.38;;;17.10;99.90;;;;;;4977588;28;20074;-94
2022/10/17 10:19:58;;;;;;;15.73;12.80;;;17.10;99.90;;;;;;4981581;28;20050;-92
2022/10/17 10:22:23;;;;;;;18.80;14.25;;;17.00;99.90;;;;;;4978798;28;20039;-92
2022/10/17 10:25:14;;;;;;;16.83;13.85;;;17.00;99.90;;;;;;4944333;28;20519;-92
2022/10/17 10:27:43;;;;;;;17.17;13.57;;;17.10;99.90;;;;;;4983655;28;20057;-94
2022/10/17 10:30:17;;;;;;;16.60;14.55;;;16.90;99.90;;;;;;4974972;28;20046;-92
2022/10/17 10:32:46;;;;;;;18.73;14.27;;;17.00;99.90;;;;;;4976564;28;20129;-94
2022/10/17 10:35:32;;;;;;;17.42;14.30;;;17.10;99.90;;;;;;4984844;28;20128;-96
2022/10/17 10:38:00;;;;;;;20.25;14.75;;;17.00;99.90;;;;;;4958760;28;20387;-94
2022/10/17 10:40:43;;;;;;;19.20;15.00;;;16.90;99.90;;;;;;4968694;28;20035;-95
2022/10/17 10:43:26;;;;;;;19.45;15.02;;;16.90;99.90;;;;;;4975630;28;20097;-96
2022/10/17 10:45:52;;;;;;;23.77;14.90;;;16.90;99.90;;;;;;4968732;28;20062;-95
2022/10/17 10:48:24;;;;;;;19.65;15.13;;;16.90;99.90;;;;;;4960281;28;20058;-95
2022/10/17 10:50:57;;;;;;;18.88;14.93;;;16.90;99.90;;;;;;4976910;28;20049;-96
2022/10/17 10:53:37;;;;;;;18.77;15.20;;;16.90;99.90;;;;;;4976926;28;20045;-95
2022/10/17 10:56:12;;;;;;;19.73;15.47;;;16.90;99.90;;;;;;4961161;28;20050;-95
2022/10/17 10:58:46;;;;;;;18.45;13.88;;;17.00;99.90;;;;;;4948934;28;20302;-94
2022/10/17 11:01:21;;;;;;;18.60;14.68;;;16.90;99.90;;;;;;4966231;28;20042;-95
2022/10/17 11:04:16;;;;;;;19.08;14.73;;;16.90;99.90;;;;;;4955291;28;20039;-94
2022/10/17 11:06:44;;;;;;;16.77;14.60;;;16.90;99.90;;;;;;4975687;28;20522;-94
2022/10/17 11:09:28;;;;;;;19.23;15.48;;;16.90;99.90;;;;;;4981010;28;20065;-93
2022/10/17 11:12:08;;;;;;;17.70;14.68;;;16.90;99.90;;;;;;4979529;28;20038;-94
2022/10/17 11:14:45;;;;;;;19.65;15.60;;;17.00;99.90;;;;;;4987392;28;20043;-94
2022/10/17 11:17:33;;;;;;;21.23;15.95;;;17.00;99.90;;;;;;4979525;28;20042;-95
2022/10/17 11:20:08;;;;;;;20.13;15.82;;;17.00;99.90;;;;;;4974093;28;20039;-96
2022/10/17 11:22:52;;;;;;;21.02;15.43;;;17.00;99.90;;;;;;4989180;28;20062;-95
2022/10/17 11:25:34;;;;;;;20.85;15.18;;;17.00;99.90;;;;;;4957912;28;20046;-95
2022/10/17 11:28:02;;;;;;;17.45;15.30;;;17.00;99.90;;;;;;4971726;28;20050;-94
2022/10/17 11:30:33;;;;;;;20.23;16.58;;;17.00;99.90;;;;;;4964944;28;20042;-93
2022/10/17 11:33:02;;;;;;;19.48;15.85;;;17.00;99.90;;;;;;4963786;28;20461;-93
2022/10/17 11:35:40;;;;;;;21.35;15.93;;;17.00;99.90;;;;;;4982571;28;20319;-96
2022/10/17 11:38:20;;;;;;;19.08;15.80;;;17.00;99.90;;;;;;4963572;28;20043;-95
2022/10/17 11:40:50;;;;;;;20.02;16.80;;;17.00;99.90;;;;;;4969105;28;20065;-94
2022/10/17 11:43:33;;;;;;;17.85;15.63;;;17.00;99.90;;;;;;4985620;28;20043;-95
2022/10/17 11:46:11;;;;;;;17.52;15.57;;;17.00;99.90;;;;;;4962256;28;20146;-95
2022/10/17 11:48:43;;;;;;;20.38;16.08;;;17.00;99.90;;;;;;4972901;28;20030;-95
2022/10/17 11:51:11;;;;;;;20.55;16.30;;;17.00;99.90;;;;;;4970341;28;20050;-96
2022/10/17 11:54:07;;;;;;;21.20;17.15;;;17.00;99.90;;;;;;4976542;28;20047;-94
2022/10/17 11:56:46;;;;;;;21.85;16.80;;;17.00;99.90;;;;;;4982963;28;20368;-96
2022/10/17 11:59:23;;;;;;;21.75;17.40;;;17.00;99.90;;;;;;4977477;28;20039;-93
2022/10/17 12:02:00;;;;;;;19.00;16.23;;;17.00;99.90;;;;;;4969700;28;20049;-95
2022/10/17 12:04:37;;;;;;;19.25;16.30;;;17.00;99.90;;;;;;4984958;28;20458;-93
2022/10/17 12:07:31;;;;;;;18.65;16.27;;;17.00;99.90;;;;;;4968398;28;20069;-95
2022/10/17 12:10:06;;;;;;;19.00;15.57;;;17.00;99.90;;;;;;4979529;28;20046;-94
2022/10/17 12:12:35;;;;;;;17.02;14.98;;;17.00;99.90;;;;;;4984214;28;20046;-92
2022/10/17 12:15:19;;;;;;;19.27;15.75;;;17.00;99.90;;;;;;4983682;28;20039;-96
2022/10/17 12:17:53;;;;;;;17.95;15.38;;;17.10;99.90;;;;;;4976181;28;20073;-95
2022/10/17 12:20:24;;;;;;;17.70;15.15;;;17.20;99.90;;;;;;4983929;28;20082;-93
2022/10/17 12:22:51;;;;;;;16.70;14.90;;;17.20;99.90;;;;;;4987014;28;20049;-93
2022/10/17 12:25:18;;;;;;;17.15;14.90;;;17.20;99.90;;;;;;4965032;28;20031;-91
2022/10/17 12:27:49;;;;;;;17.38;15.13;;;17.30;99.90;;;;;;4984933;28;20081;-96
2022/10/17 12:30:23;;;;;;;16.52;14.15;;;17.40;99.90;;;;;;4954801;28;20046;-95
2022/10/17 12:33:17;;;;;;;15.40;13.68;;;17.40;99.90;;;;;;4958815;28;20043;-94
2022/10/17 12:35:43;;;;;;;15.90;13.32;;;17.40;99.90;;;;;;4983568;28;20050;-93
2022/10/17 12:38:24;;;;;;;14.35;12.30;;;17.50;99.90;;;;;;4967072;28;20128;-92
2022/10/17 12:40:52;;;;;;;14.23;12.55;;;17.40;99.90;;;;;;4974434;28;20049;-92
2022/10/17 12:43:27;;;;;;;15.98;13.40;;;17.40;99.90;;;;;;4968948;28;20046;-93
2022/10/17 12:46:00;;;;;;;14.68;12.45;;;17.50;99.90;;;;;;4959698;28;20063;-93
2022/10/17 12:48:32;;;;;;;14.50;11.93;;;17.40;99.90;;;;;;4978593;28;20051;-92
2022/10/17 12:51:17;;;;;;;14.20;11.88;;;17.40;99.90;;;;;;4975174;28;20043;-92
2022/10/17 12:53:59;;;;;;;14.45;11.30;;;17.40;99.90;;;;;;4977566;28;20049;-92
2022/10/17 12:56:38;;;;;;;12.93;11.43;;;17.40;99.90;;;;;;4985509;28;20046;-94
2022/10/17 12:59:27;;;;;;;14.93;11.95;;;17.30;99.90;;;;;;4969115;28;20054;-92
2022/10/17 13:02:02;;;;;;;13.88;11.23;;;17.30;99.90;;;;;;4960190;28;20141;-93
2022/10/17 13:04:29;;;;;;;15.80;10.57;;;17.30;99.90;;;;;;4967258;28;20074;-92
2022/10/17 13:06:57;;;;;;;14.00;11.48;;;17.20;99.90;;;;;;4964838;28;20066;-92
2022/10/17 13:09:28;;;;;;;17.55;11.30;;;17.30;99.90;;;;;;4962107;28;20126;-90
2022/10/17 13:11:56;;;;;;;12.80;11.20;;;17.30;99.90;;;;;;4973115;28;20046;-93
2022/10/17 13:14:23;;;;;;;13.77;11.20;;;17.30;99.90;;;;;;4986396;28;20042;-91
2022/10/17 13:17:00;;;;;;;13.48;10.95;;;17.20;99.90;;;;;;4980214;28;20069;-93
2022/10/17 13:19:39;;;;;;;13.63;11.15;;;17.20;99.90;;;;;;4980074;28;20051;-94
2022/10/17 13:22:31;;;;;;;12.98;11.38;;;17.20;99.90;;;;;;4956160;28;20034;-95
2022/10/17 13:25:15;;;;;;;13.75;11.23;;;17.20;99.90;;;;;;4980493;28;20054;-93
2022/10/17 13:27:41;;;;;;;13.27;10.77;;;17.20;99.90;;;;;;4983324;28;20049;-96
2022/10/17 13:30:29;;;;;;;13.77;11.43;;;17.10;99.90;;;;;;4960559;28;20049;-93
2022/10/17 13:32:55;;;;;;;13.98;11.10;;;17.20;99.90;;;;;;4970406;28;20038;-94
2022/10/17 13:35:26;;;;;;;15.73;12.52;;;17.10;99.90;;;;;;4961480;28;20092;-91
2022/10/17 13:37:54;;;;;;;10.73;6.03;;;17.10;99.90;;;;;;4981474;28;20046;-93
2022/10/17 13:40:36;;;;;;;10.38;5.72;;;17.00;99.90;;;;;;4971785;28;20038;-93
2022/10/17 13:43:04;;;;;;;11.75;5.40;;;16.90;99.90;;;;;;4974959;28;20517;-93
2022/10/17 13:45:35;;;;;;;8.00;4.30;;;16.80;99.90;;;;;;4984318;28;20061;-92
2022/10/17 13:48:03;;;;;;;;;;;16.70;99.90;;;;;;4980110;28;20054;-90
2022/10/17 13:50:34;;;;;;;9.25;4.43;;;16.60;99.90;;;;;;4978809;28;19926;-93
2022/10/17 13:53:34;;;;;;;8.80;4.85;;;16.60;99.90;;;;;;4973356;28;20042;-90
2022/10/17 13:56:16;;;;;;;10.82;5.13;;;16.50;99.90;;;;;;4979644;28;20399;-93
2022/10/17 13:58:48;;;;;;;11.02;5.40;;;16.50;99.90;;;;;;4980335;28;20085;-96
2022/10/17 14:01:15;;;;;;;10.65;5.68;;;16.50;99.90;;;;;;4964480;28;20053;-94
2022/10/17 14:03:45;;;;;;;10.18;5.25;;;16.50;99.90;;;;;;4969459;28;20057;-96
2022/10/17 14:06:24;;;;;;;9.45;5.20;;;16.50;99.90;;;;;;4969711;28;20050;-94
2022/10/17 14:08:59;;;;;;;8.45;4.60;;;16.50;99.90;;;;;;4972776;28;20046;-92
2022/10/17 14:11:37;;;;;;;9.60;5.20;;;16.40;99.90;;;;;;4954566;28;20030;-93
2022/10/17 14:14:06;;;;;;;9.32;5.07;;;16.40;99.90;;;;;;4966039;28;20049;-94
2022/10/17 14:16:41;;;;;;;10.52;5.25;;;16.40;99.90;;;;;;4977320;28;20046;-94
2022/10/17 14:19:24;;;;;;;8.18;5.05;;;16.40;99.90;;;;;;4960981;28;20050;-95
2022/10/17 14:21:55;;;;;;;11.13;5.22;;;16.30;99.90;;;;;;4964750;28;20073;-89
2022/10/17 14:24:21;;;;;;;7.93;3.78;;;16.30;99.90;;;;;;4978735;28;20050;-93
2022/10/17 14:26:48;;;;;;;9.02;3.60;;;16.20;99.90;;;;;;4981598;28;20042;-91
2022/10/17 14:29:24;;;;;;;9.35;4.10;;;16.20;99.90;;;;;;4980054;28;20396;-91
2022/10/17 14:32:07;;;;;;;6.25;3.55;;;16.10;99.90;;;;;;4991560;28;20042;-91
2022/10/17 14:34:38;;;;;;;13.40;4.22;;;16.10;99.90;;;;;;4961372;28;20080;-91
2022/10/17 14:37:28;;;;;;;8.40;3.60;;;16.00;99.90;;;;;;4973409;28;20109;-92
2022/10/17 14:39:54;;;;;;;7.53;3.67;;;16.10;99.90;;;;;;4985211;28;20097;-92
2022/10/17 14:42:21;;;;;;;8.55;3.70;;;16.10;99.90;;;;;;4960187;28;20054;-92
2022/10/17 14:44:53;;;;;;;7.07;3.35;;;16.10;99.90;;;;;;4974634;28;20455;-92
2022/10/17 14:47:26;;;;;;;9.05;3.35;;;16.00;99.90;;;;;;4969196;28;20101;-91
2022/10/17 14:50:11;;;;;;;7.03;3.60;;;16.00;99.90;;;;;;4960049;28;20058;-93
2022/10/17 14:52:38;;;;;;;7.57;3.42;;;16.00;99.90;;;;;;4953698;28;20451;-90
2022/10/17 14:55:23;;;;;;;7.20;3.90;;;16.00;99.90;;;;;;4978913;28;21043;-91
